Time;durP1;ratioP1;P1;durP2;ratioP2;P2;SDS_P1;SDS_P2;PMS_P1;PMS_P2;Temp;Humidity;BMP_temperature;BMP_pressure;BME280_temperature;BME280_humidity;BME280_pressure;Samples;Min_cycle;Max_cycle;Signal;HPM_P1;HPM_P2
2021/06/01 00:01:04;;;;;;;0.25;0.25;;;16.30;52.40;;;;;;6071802;23;20014;-80
2021/06/01 00:03:29;;;;;;;0.10;0.10;;;16.30;52.40;;;;;;6047556;23;20522;-80
2021/06/01 00:05:55;;;;;;;0.30;0.30;;;16.30;52.40;;;;;;6047563;23;20010;-79
2021/06/01 00:08:22;;;;;;;0.20;0.20;;;16.20;52.40;;;;;;6047055;23;20014;-80
2021/06/01 00:10:48;;;;;;;0.25;0.25;;;16.10;52.50;;;;;;6046254;23;20019;-80
2021/06/01 00:13:13;;;;;;;0.13;0.13;;;16.30;52.60;;;;;;6069510;23;20572;-80
2021/06/01 00:15:40;;;;;;;0.30;0.30;;;16.10;52.50;;;;;;6047334;23;20014;-81
2021/06/01 00:18:08;;;;;;;0.20;0.20;;;16.10;52.40;;;;;;6047213;23;20051;-80
2021/06/01 00:20:34;;;;;;;0.10;0.10;;;16.20;52.40;;;;;;6059677;23;20506;-81
2021/06/01 00:23:00;;;;;;;0.35;0.20;;;16.20;52.40;;;;;;6109730;23;20053;-79
2021/06/01 00:25:26;;;;;;;0.38;0.20;;;16.20;52.40;;;;;;6080134;23;20071;-79
2021/06/01 00:27:52;;;;;;;0.20;0.20;;;16.20;52.40;;;;;;6134102;23;20017;-82
2021/06/01 00:30:18;;;;;;;0.20;0.20;;;16.20;52.40;;;;;;6200365;23;20012;-81
2021/06/01 00:32:47;;;;;;;0.30;0.30;;;16.20;52.50;;;;;;6225010;23;20187;-81
2021/06/01 00:35:13;;;;;;;0.52;0.35;;;16.10;52.40;;;;;;6225566;23;20016;-80
2021/06/01 00:37:39;;;;;;;0.25;0.25;;;16.10;53.00;;;;;;6199774;23;20007;-80
2021/06/01 00:40:06;;;;;;;0.38;0.38;;;16.10;52.50;;;;;;6200533;23;20077;-80
2021/06/01 00:42:32;;;;;;;0.20;0.20;;;16.00;52.40;;;;;;6224870;23;20432;-80
2021/06/01 00:44:58;;;;;;;0.20;0.20;;;16.00;52.40;;;;;;6199008;23;20012;-79
2021/06/01 00:47:26;;;;;;;0.20;0.20;;;16.00;52.40;;;;;;6193563;23;20448;-81
2021/06/01 00:49:51;;;;;;;0.35;0.35;;;16.10;52.60;;;;;;6245445;23;20008;-80
2021/06/01 00:52:17;;;;;;;0.30;0.30;;;15.90;52.50;;;;;;6193592;23;20015;-80
2021/06/01 00:54:43;;;;;;;0.30;0.30;;;16.00;52.60;;;;;;6193387;23;20012;-80
2021/06/01 00:57:09;;;;;;;0.30;0.30;;;15.90;52.60;;;;;;6193418;23;20379;-80
2021/06/01 00:59:35;;;;;;;0.28;0.25;;;15.90;52.70;;;;;;6193158;23;20008;-78
2021/06/01 01:02:05;;;;;;;0.30;0.30;;;15.80;52.70;;;;;;6243743;23;20011;-80
2021/06/01 01:04:31;;;;;;;0.20;0.20;;;15.80;52.90;;;;;;6219367;23;20004;-80
2021/06/01 01:07:33;;;;;;;0.20;0.20;;;15.80;52.90;;;;;;6244048;23;20012;-80
2021/06/01 01:09:59;;;;;;;0.30;0.30;;;15.70;52.90;;;;;;6221560;23;20436;-81
2021/06/01 01:12:40;;;;;;;0.20;0.20;;;15.70;53.00;;;;;;6193662;23;20043;-79
2021/06/01 01:15:08;;;;;;;0.20;0.20;;;15.60;53.10;;;;;;6194526;23;20024;-80
2021/06/01 01:17:44;;;;;;;0.40;0.30;;;15.60;53.20;;;;;;6193728;23;20019;-80
2021/06/01 01:20:24;;;;;;;0.28;0.25;;;15.50;53.20;;;;;;6194037;23;20016;-80
2021/06/01 01:22:54;;;;;;;0.20;0.20;;;15.50;53.40;;;;;;6218636;23;20035;-80
2021/06/01 01:25:26;;;;;;;0.15;0.15;;;15.50;53.50;;;;;;6213858;23;20015;-80
2021/06/01 01:28:17;;;;;;;0.20;0.20;;;15.50;53.50;;;;;;6192187;23;20015;-80
2021/06/01 01:30:56;;;;;;;0.20;0.20;;;15.40;53.50;;;;;;6202001;23;20027;-80
2021/06/01 01:33:28;;;;;;;0.93;0.22;;;15.40;53.70;;;;;;6218147;23;20306;-81
2021/06/01 01:36:17;;;;;;;0.20;0.20;;;15.20;53.70;;;;;;6193699;23;20012;-80
2021/06/01 01:42:22;;;;;;;0.47;0.30;;;15.20;54.00;;;;;;6088178;23;20015;-80
2021/06/01 01:45:28;;;;;;;0.20;0.20;;;15.10;54.10;;;;;;6063398;23;20025;-80
2021/06/01 01:51:12;;;;;;;0.25;0.25;;;14.90;54.40;;;;;;5921111;24;20021;-80
2021/06/01 01:53:50;;;;;;;0.20;0.20;;;14.90;54.40;;;;;;5923838;24;20017;-80
2021/06/01 01:56:19;;;;;;;0.30;0.30;;;14.90;54.50;;;;;;5923686;24;20462;-80
2021/06/01 01:58:47;;;;;;;0.30;0.30;;;14.80;54.50;;;;;;5923406;24;20020;-80
2021/06/01 02:01:13;;;;;;;0.20;0.20;;;14.80;54.60;;;;;;5923921;24;20017;-80
2021/06/01 02:03:40;;;;;;;0.30;0.30;;;14.70;54.60;;;;;;5923890;24;20050;-81
2021/06/01 02:06:07;;;;;;;0.30;0.30;;;14.70;54.80;;;;;;5914962;24;20477;-81
2021/06/01 02:08:34;;;;;;;0.22;0.22;;;14.70;54.90;;;;;;5940804;23;20007;-82
2021/06/01 02:10:59;;;;;;;0.15;0.15;;;14.60;54.90;;;;;;5988745;23;20015;-81
2021/06/01 02:13:28;;;;;;;0.75;0.28;;;14.60;54.90;;;;;;6011925;23;20015;-79
2021/06/01 02:15:59;;;;;;;0.20;0.20;;;14.50;54.90;;;;;;5962935;23;20042;-80
2021/06/01 02:18:24;;;;;;;;;;;14.60;55.00;;;;;;6035386;23;20139;-79
2021/06/01 02:20:54;;;;;;;0.30;0.30;;;14.50;54.90;;;;;;6122662;23;20334;-82
2021/06/01 02:23:48;;;;;;;0.30;0.30;;;14.60;55.00;;;;;;6075433;23;20124;-81
2021/06/01 02:26:34;;;;;;;0.75;0.32;;;14.40;54.90;;;;;;6081856;23;20084;-81
2021/06/01 02:29:11;;;;;;;0.20;0.20;;;14.50;55.00;;;;;;6212717;23;20034;-81
2021/06/01 02:32:06;;;;;;;0.20;0.10;;;14.40;55.10;;;;;;6193724;23;20008;-81
2021/06/01 02:34:55;;;;;;;0.30;0.30;;;14.30;55.20;;;;;;6111376;23;20028;-82
2021/06/01 02:37:31;;;;;;;0.40;0.30;;;14.30;55.30;;;;;;6137319;23;20071;-81
2021/06/01 02:40:09;;;;;;;0.30;0.30;;;14.30;55.40;;;;;;6092226;23;20026;-81
2021/06/01 02:42:38;;;;;;;0.30;0.30;;;14.20;55.40;;;;;;6091313;23;20180;-82
2021/06/01 02:45:05;;;;;;;0.38;0.38;;;14.20;55.50;;;;;;6093574;23;20065;-82
2021/06/01 02:47:31;;;;;;;0.30;0.30;;;14.30;55.70;;;;;;6092989;23;20112;-81
2021/06/01 02:49:58;;;;;;;0.30;0.30;;;14.10;55.60;;;;;;6093294;23;20366;-82
2021/06/01 02:52:24;;;;;;;0.30;0.30;;;14.20;55.80;;;;;;6069151;23;20014;-81
2021/06/01 02:54:50;;;;;;;0.20;0.20;;;14.10;55.90;;;;;;6092877;23;20022;-82
2021/06/01 02:57:19;;;;;;;0.22;0.20;;;14.00;56.00;;;;;;6093006;23;20355;-82
2021/06/01 02:59:45;;;;;;;0.30;0.30;;;13.90;56.10;;;;;;6139469;23;20024;-81
2021/06/01 03:02:11;;;;;;;0.30;0.30;;;13.90;56.20;;;;;;6165821;23;20012;-81
2021/06/01 03:04:48;;;;;;;0.20;0.20;;;13.90;56.30;;;;;;6130956;23;20108;-81
2021/06/01 03:07:14;;;;;;;0.22;0.22;;;13.80;56.40;;;;;;6186586;23;20016;-81
2021/06/01 03:09:40;;;;;;;0.40;0.40;;;13.80;56.50;;;;;;6186328;23;20039;-82
2021/06/01 03:12:08;;;;;;;0.65;0.45;;;13.80;56.50;;;;;;6192099;23;20016;-81
2021/06/01 03:14:33;;;;;;;0.22;0.22;;;13.80;56.50;;;;;;6218176;23;20012;-82
2021/06/01 03:16:59;;;;;;;0.30;0.30;;;13.80;56.60;;;;;;6192571;23;20004;-82
2021/06/01 03:19:25;;;;;;;1.00;0.25;;;13.70;56.60;;;;;;6242820;23;20371;-82
2021/06/01 03:21:51;;;;;;;0.30;0.30;;;13.60;56.60;;;;;;6192791;23;20007;-81
2021/06/01 03:24:16;;;;;;;0.30;0.30;;;13.60;56.60;;;;;;6217504;23;20081;-81
2021/06/01 03:26:49;;;;;;;0.20;0.20;;;13.60;56.70;;;;;;6217623;23;20008;-80
2021/06/01 03:29:17;;;;;;;0.93;0.20;;;13.70;56.80;;;;;;6160861;23;20017;-81
2021/06/01 03:31:48;;;;;;;0.30;0.30;;;13.60;56.80;;;;;;6210370;23;20016;-81
2021/06/01 03:34:14;;;;;;;0.15;0.15;;;13.60;56.80;;;;;;6121179;23;20038;-81
2021/06/01 03:36:40;;;;;;;0.30;0.30;;;13.60;56.90;;;;;;6121854;23;20077;-81
2021/06/01 03:39:08;;;;;;;0.20;0.20;;;13.60;56.90;;;;;;6048069;23;20090;-81
2021/06/01 03:41:35;;;;;;;0.32;0.30;;;13.60;57.00;;;;;;6122395;23;20042;-81
2021/06/01 03:44:01;;;;;;;0.20;0.20;;;13.60;57.00;;;;;;6122914;23;20382;-81
2021/06/01 03:46:27;;;;;;;0.20;0.20;;;13.50;57.00;;;;;;6049023;23;20021;-82
2021/06/01 03:48:52;;;;;;;0.20;0.20;;;13.60;57.10;;;;;;6069174;23;20093;-81
2021/06/01 03:51:18;;;;;;;0.20;0.20;;;13.50;57.10;;;;;;6098062;23;20014;-80
2021/06/01 03:53:44;;;;;;;0.43;0.30;;;13.50;57.20;;;;;;6097108;23;20026;-81
2021/06/01 03:56:10;;;;;;;0.30;0.30;;;13.50;57.20;;;;;;6048101;23;20021;-81
2021/06/01 03:58:35;;;;;;;0.30;0.30;;;13.50;57.20;;;;;;6083545;23;20085;-81
2021/06/01 04:01:02;;;;;;;0.30;0.30;;;13.60;57.30;;;;;;6153008;23;20017;-81
2021/06/01 04:03:27;;;;;;;0.20;0.20;;;13.50;57.30;;;;;;6122982;23;20009;-81
2021/06/01 04:05:56;;;;;;;0.30;0.30;;;13.50;57.30;;;;;;6174837;23;20023;-81
2021/06/01 04:08:21;;;;;;;0.40;0.30;;;13.50;57.30;;;;;;6193121;23;20011;-81
2021/06/01 04:10:47;;;;;;;1.10;0.38;;;13.50;57.30;;;;;;6242534;23;20008;-80
2021/06/01 04:13:13;;;;;;;0.57;0.40;;;13.60;57.30;;;;;;6216982;23;20012;-80
2021/06/01 04:15:38;;;;;;;0.40;0.40;;;13.40;57.30;;;;;;6192121;23;20399;-81
2021/06/01 04:18:04;;;;;;;0.20;0.20;;;13.70;57.50;;;;;;6244639;23;20328;-81
2021/06/01 04:20:30;;;;;;;0.32;0.32;;;13.50;57.30;;;;;;6217681;23;20329;-80
2021/06/01 04:22:55;;;;;;;0.20;0.20;;;13.40;57.30;;;;;;6244132;23;20452;-82
2021/06/01 04:25:21;;;;;;;0.65;0.30;;;13.60;57.40;;;;;;6193914;23;20122;-81
2021/06/01 04:27:47;;;;;;;0.30;0.30;;;13.60;57.40;;;;;;6245524;23;20042;-80
2021/06/01 04:30:16;;;;;;;0.20;0.20;;;13.50;57.30;;;;;;6244229;23;20058;-81
2021/06/01 04:32:42;;;;;;;0.47;0.30;;;13.60;57.30;;;;;;6192611;23;20069;-81
2021/06/01 04:35:08;;;;;;;0.52;0.30;;;13.60;58.00;;;;;;6167413;23;20104;-80
2021/06/01 04:37:35;;;;;;;0.20;0.20;;;13.60;57.40;;;;;;6192113;23;20012;-80
2021/06/01 04:40:01;;;;;;;0.30;0.30;;;13.70;57.50;;;;;;6167603;23;20020;-82
2021/06/01 04:42:26;;;;;;;0.22;0.20;;;13.70;57.40;;;;;;6192347;23;20016;-81
2021/06/01 04:44:56;;;;;;;0.30;0.30;;;13.70;57.40;;;;;;6243198;23;20011;-81
2021/06/01 04:47:22;;;;;;;0.20;0.20;;;13.80;57.50;;;;;;6167164;23;20077;-81
2021/06/01 04:49:49;;;;;;;0.20;0.20;;;13.80;57.50;;;;;;6168317;23;21105;-81
2021/06/01 04:52:15;;;;;;;0.28;0.28;;;13.90;57.50;;;;;;6167588;23;20015;-81
2021/06/01 04:54:41;;;;;;;0.30;0.25;;;13.80;57.40;;;;;;6167406;23;20022;-82
2021/06/01 04:57:07;;;;;;;0.20;0.20;;;13.90;57.40;;;;;;6167708;23;20032;-81
2021/06/01 04:59:35;;;;;;;0.40;0.30;;;13.90;57.30;;;;;;6192565;23;20078;-81
2021/06/01 05:02:00;;;;;;;0.20;0.20;;;14.00;57.40;;;;;;6168273;23;20127;-80
2021/06/01 05:04:26;;;;;;;0.30;0.28;;;14.00;57.30;;;;;;6212919;23;20020;-79
2021/06/01 05:06:56;;;;;;;0.30;0.30;;;14.10;57.20;;;;;;6244359;23;20099;-80
2021/06/01 05:09:23;;;;;;;0.40;0.30;;;14.20;57.20;;;;;;6219569;23;20019;-82
2021/06/01 05:11:49;;;;;;;0.13;0.13;;;14.30;57.10;;;;;;6187305;23;20052;-82
2021/06/01 05:14:15;;;;;;;0.80;0.30;;;14.40;57.10;;;;;;6212226;23;20013;-82
2021/06/01 05:16:50;;;;;;;0.30;0.30;;;14.40;56.90;;;;;;6137996;23;20016;-82
2021/06/01 05:19:16;;;;;;;0.30;0.30;;;14.50;56.90;;;;;;6185432;23;20008;-81
2021/06/01 05:21:42;;;;;;;0.20;0.20;;;14.60;56.70;;;;;;6187229;23;20013;-82
2021/06/01 05:24:11;;;;;;;0.50;0.30;;;14.70;56.60;;;;;;6187179;23;20018;-81
2021/06/01 05:26:37;;;;;;;0.40;0.35;;;14.90;56.70;;;;;;6187194;23;20021;-83
2021/06/01 05:29:03;;;;;;;0.38;0.30;;;14.90;56.60;;;;;;6186931;23;20078;-82
2021/06/01 05:31:41;;;;;;;0.38;0.38;;;15.00;56.50;;;;;;6187102;23;20039;-82
2021/06/01 05:34:08;;;;;;;0.28;0.25;;;14.90;56.40;;;;;;6212260;23;20468;-83
2021/06/01 05:36:34;;;;;;;0.30;0.30;;;15.00;56.40;;;;;;6187072;23;20476;-80
2021/06/01 05:39:00;;;;;;;0.38;0.38;;;15.20;56.40;;;;;;6186829;23;20016;-82
2021/06/01 05:41:25;;;;;;;0.30;0.30;;;15.20;56.40;;;;;;6187828;23;20024;-82
2021/06/01 05:43:51;;;;;;;0.47;0.30;;;15.30;56.50;;;;;;6216281;23;20452;-81
2021/06/01 05:46:17;;;;;;;0.60;0.40;;;15.40;56.50;;;;;;6193140;23;20012;-83
2021/06/01 05:48:43;;;;;;;0.45;0.30;;;15.40;56.50;;;;;;6245011;22;20012;-81
2021/06/01 05:51:10;;;;;;;0.63;0.40;;;15.50;56.50;;;;;;6193307;23;20050;-78
2021/06/01 05:53:37;;;;;;;0.30;0.30;;;15.60;56.50;;;;;;6243143;23;20016;-81
2021/06/01 05:56:04;;;;;;;0.40;0.40;;;15.70;56.50;;;;;;6218412;23;20012;-81
2021/06/01 05:58:29;;;;;;;0.32;0.32;;;15.70;56.40;;;;;;6218013;23;20023;-79
2021/06/01 06:00:55;;;;;;;0.35;0.35;;;15.80;56.40;;;;;;6243549;23;20633;-79
2021/06/01 06:03:21;;;;;;;0.60;0.50;;;15.80;56.30;;;;;;6218503;23;20394;-81
2021/06/01 06:05:48;;;;;;;0.40;0.40;;;15.90;56.30;;;;;;6218380;23;20046;-81
2021/06/01 06:08:17;;;;;;;0.40;0.38;;;16.00;56.30;;;;;;6243499;23;20008;-81
2021/06/01 06:10:45;;;;;;;0.30;0.30;;;16.10;56.40;;;;;;6219307;23;20391;-80
2021/06/01 06:13:12;;;;;;;0.20;0.20;;;16.10;56.30;;;;;;6245012;22;20015;-79
2021/06/01 06:15:39;;;;;;;0.30;0.30;;;16.10;56.20;;;;;;6243135;23;20012;-81
2021/06/01 06:18:27;;;;;;;0.30;0.30;;;16.30;56.20;;;;;;6193718;23;20008;-79
2021/06/01 06:20:59;;;;;;;0.30;0.30;;;16.30;56.20;;;;;;6242930;23;20087;-81
2021/06/01 06:23:25;;;;;;;0.30;0.30;;;16.40;56.10;;;;;;6218080;23;20008;-80
2021/06/01 06:25:50;;;;;;;0.50;0.50;;;16.60;56.00;;;;;;6246323;23;20015;-80
2021/06/01 06:28:16;;;;;;;0.40;0.40;;;16.60;55.90;;;;;;6245928;23;20398;-80
2021/06/01 06:30:42;;;;;;;0.30;0.30;;;16.80;55.80;;;;;;6247592;23;20031;-80
2021/06/01 06:33:07;;;;;;;0.30;0.30;;;16.90;55.70;;;;;;6244066;23;20008;-78
2021/06/01 06:35:33;;;;;;;0.63;0.45;;;17.00;55.60;;;;;;6223642;23;20015;-79
2021/06/01 06:37:59;;;;;;;0.47;0.40;;;17.10;55.50;;;;;;6247761;22;20018;-81
2021/06/01 06:40:25;;;;;;;0.30;0.30;;;17.20;55.30;;;;;;6218746;23;20004;-82
2021/06/01 06:42:50;;;;;;;0.30;0.30;;;17.40;55.30;;;;;;6244171;23;20038;-80
2021/06/01 06:45:17;;;;;;;0.40;0.40;;;17.40;55.10;;;;;;6220680;23;20012;-80
2021/06/01 06:50:24;;;;;;;0.30;0.30;;;17.60;54.90;;;;;;6246274;22;20012;-79
2021/06/01 06:52:51;;;;;;;0.30;0.30;;;17.80;54.80;;;;;;6195079;23;20008;-79
2021/06/01 06:55:17;;;;;;;0.45;0.45;;;18.00;54.70;;;;;;6258791;22;20016;-78
2021/06/01 06:57:43;;;;;;;0.70;0.50;;;18.20;54.50;;;;;;6254626;23;20011;-78
2021/06/01 07:00:12;;;;;;;0.50;0.50;;;18.40;54.50;;;;;;6247604;22;20455;-79
2021/06/01 07:02:41;;;;;;;0.35;0.35;;;18.60;54.30;;;;;;6243897;23;20092;-80
2021/06/01 07:05:07;;;;;;;1.33;0.50;;;18.90;54.20;;;;;;6245606;22;20066;-80
2021/06/01 07:07:33;;;;;;;0.40;0.38;;;18.90;53.90;;;;;;6243069;23;20008;-79
2021/06/01 07:09:59;;;;;;;0.80;0.60;;;19.30;54.00;;;;;;6243502;23;20099;-77
2021/06/01 07:12:24;;;;;;;0.50;0.50;;;19.40;53.80;;;;;;6244693;22;20015;-80
2021/06/01 07:15:02;;;;;;;0.80;0.43;;;19.60;53.70;;;;;;6193118;23;20008;-79
2021/06/01 07:17:28;;;;;;;0.55;0.47;;;19.90;53.60;;;;;;6220140;23;20008;-79
2021/06/01 07:23:10;;;;;;;0.73;0.50;;;20.20;53.40;;;;;;6090682;23;20010;-78
2021/06/01 07:25:36;;;;;;;0.52;0.52;;;20.50;53.40;;;;;;6081328;23;20068;-78
2021/06/01 07:28:02;;;;;;;0.65;0.50;;;20.60;53.30;;;;;;6072424;23;20045;-81
2021/06/01 07:30:28;;;;;;;0.40;0.40;;;20.80;53.30;;;;;;6070752;23;20080;-78
2021/06/01 07:33:04;;;;;;;1.08;0.50;;;20.90;53.30;;;;;;6055761;23;20042;-84
2021/06/01 07:35:29;;;;;;;2.13;0.50;;;21.20;53.80;;;;;;6047123;23;20022;-77
2021/06/01 07:37:55;;;;;;;0.35;0.35;;;21.40;53.10;;;;;;6069224;23;20025;-78
2021/06/01 07:40:21;;;;;;;0.60;0.60;;;21.60;53.00;;;;;;6044867;23;20022;-77
2021/06/01 07:42:50;;;;;;;0.45;0.45;;;21.80;53.10;;;;;;6069785;23;20029;-82
2021/06/01 07:48:49;;;;;;;0.73;0.70;;;22.10;52.90;;;;;;6004071;23;20027;-75
2021/06/01 07:51:27;;;;;;;0.73;0.50;;;22.30;53.00;;;;;;6010351;23;20365;-75
2021/06/01 07:53:54;;;;;;;1.15;0.60;;;22.40;53.50;;;;;;6007406;23;20932;-80
2021/06/01 07:56:19;;;;;;;0.50;0.50;;;22.60;52.90;;;;;;6013818;23;20022;-77
2021/06/01 07:58:48;;;;;;;0.60;0.50;;;22.70;52.80;;;;;;5995500;23;20016;-80
2021/06/01 08:01:20;;;;;;;0.50;0.50;;;22.90;52.70;;;;;;6091064;23;20096;-80
2021/06/01 08:03:55;;;;;;;0.50;0.50;;;23.10;52.60;;;;;;6094759;23;20011;-83
2021/06/01 08:06:23;;;;;;;0.50;0.50;;;23.30;52.60;;;;;;6096257;23;20020;-77
2021/06/01 08:08:48;;;;;;;1.05;0.55;;;23.50;52.60;;;;;;6094667;23;20569;-78
2021/06/01 08:11:14;;;;;;;0.40;0.40;;;23.50;52.60;;;;;;6071517;23;20057;-79
2021/06/01 08:13:40;;;;;;;0.40;0.40;;;23.80;52.50;;;;;;6126401;23;20021;-82
2021/06/01 08:16:06;;;;;;;0.52;0.52;;;23.90;52.40;;;;;;6123767;23;20504;-76
2021/06/01 08:18:36;;;;;;;1.00;0.60;;;24.20;52.40;;;;;;6098872;23;20018;-78
2021/06/01 08:21:07;;;;;;;;;;;24.20;52.20;;;;;;6094675;23;20010;-78
2021/06/01 08:23:33;;;;;;;0.82;0.47;;;24.20;52.30;;;;;;6123291;23;19908;-81
2021/06/01 08:25:59;;;;;;;0.57;0.57;;;24.30;52.40;;;;;;6182801;23;20391;-80
2021/06/01 08:28:25;;;;;;;0.40;0.40;;;24.50;52.10;;;;;;6245234;22;20008;-79
2021/06/01 08:30:52;;;;;;;0.40;0.40;;;24.70;52.10;;;;;;6218822;23;20336;-77
2021/06/01 08:33:18;;;;;;;0.60;0.60;;;24.90;52.00;;;;;;6245729;22;20104;-77
2021/06/01 08:35:44;;;;;;;0.60;0.60;;;24.90;51.90;;;;;;6243498;23;20012;-78
2021/06/01 08:38:11;;;;;;;0.50;0.50;;;25.10;51.90;;;;;;6243996;23;20324;-79
2021/06/01 08:40:37;;;;;;;0.70;0.50;;;25.20;51.90;;;;;;6218889;23;20091;-78
2021/06/01 08:43:16;;;;;;;0.60;0.40;;;25.40;51.80;;;;;;6218988;23;20046;-78
2021/06/01 08:45:48;;;;;;;0.43;0.43;;;25.60;51.60;;;;;;6244820;23;20012;-77
2021/06/01 08:48:15;;;;;;;0.40;0.40;;;25.70;51.50;;;;;;6245341;22;20457;-80
2021/06/01 08:50:41;;;;;;;0.75;0.50;;;25.80;51.40;;;;;;6221819;23;20058;-80
2021/06/01 08:53:07;;;;;;;0.93;0.52;;;26.00;51.40;;;;;;6219116;23;20012;-81
2021/06/01 08:55:33;;;;;;;0.70;0.70;;;26.00;52.00;;;;;;6220388;23;20022;-77
2021/06/01 08:57:59;;;;;;;0.98;0.70;;;26.10;51.30;;;;;;6218499;23;20107;-80
2021/06/01 09:00:25;;;;;;;1.20;0.70;;;26.10;51.30;;;;;;6162327;23;20013;-81
2021/06/01 09:03:09;;;;;;;0.85;0.50;;;26.10;51.40;;;;;;6188047;23;20043;-81
2021/06/01 09:05:35;;;;;;;0.40;0.40;;;26.20;51.60;;;;;;6190922;23;20023;-80
2021/06/01 09:08:07;;;;;;;0.65;0.60;;;26.30;51.50;;;;;;6217354;23;20437;-81
2021/06/01 09:10:43;;;;;;;0.52;0.52;;;26.40;51.50;;;;;;6219731;23;20025;-78
2021/06/01 09:21:45;;;;;;;1.10;0.60;;;26.60;51.40;;;;;;6213050;23;20452;-81
2021/06/01 09:24:11;;;;;;;0.40;0.40;;;26.70;51.30;;;;;;6213052;23;20448;-80
2021/06/01 09:27:12;;;;;;;0.60;0.60;;;26.80;51.10;;;;;;6189626;23;20028;-78
2021/06/01 09:29:48;;;;;;;0.50;0.50;;;27.10;51.00;;;;;;6213028;23;20051;-78
2021/06/01 09:32:16;;;;;;;0.50;0.50;;;27.10;50.70;;;;;;6238936;23;20027;-79
2021/06/01 09:34:47;;;;;;;0.60;0.60;;;27.10;50.80;;;;;;6218962;23;20032;-76
2021/06/01 09:37:18;;;;;;;1.30;0.73;;;27.30;50.80;;;;;;6192823;23;20068;-79
2021/06/01 09:39:44;;;;;;;0.90;0.60;;;27.10;50.60;;;;;;6241307;23;20061;-78
2021/06/01 09:42:31;;;;;;;0.50;0.50;;;27.10;50.90;;;;;;6243963;23;20004;-79
2021/06/01 09:45:13;;;;;;;0.52;0.50;;;27.10;51.00;;;;;;6254015;22;20012;-81
2021/06/01 09:47:52;;;;;;;0.50;0.50;;;27.30;51.10;;;;;;6248506;23;20379;-77
2021/06/01 09:50:32;;;;;;;1.37;0.80;;;27.30;50.70;;;;;;6248079;23;20058;-77
2021/06/01 09:53:02;;;;;;;0.50;0.50;;;27.50;51.30;;;;;;6222520;23;20312;-77
2021/06/01 09:55:36;;;;;;;1.23;0.60;;;27.50;50.70;;;;;;6228458;23;20061;-78
2021/06/01 09:58:06;;;;;;;0.60;0.60;;;27.60;50.50;;;;;;6224733;23;20012;-78
2021/06/01 10:00:33;;;;;;;;;;;27.70;50.20;;;;;;6248073;23;20015;-81
2021/06/01 10:03:03;;;;;;;0.40;0.40;;;27.90;50.30;;;;;;6246614;22;19907;-79
2021/06/01 10:05:34;;;;;;;0.75;0.60;;;27.90;50.30;;;;;;6246424;23;20038;-79
2021/06/01 10:08:11;;;;;;;0.90;0.50;;;27.90;50.10;;;;;;6242214;23;20065;-77
2021/06/01 10:10:37;;;;;;;0.50;0.50;;;27.90;50.20;;;;;;6245585;23;20012;-76
2021/06/01 10:13:07;;;;;;;0.55;0.55;;;27.90;50.20;;;;;;6251255;22;20039;-77
2021/06/01 10:15:35;;;;;;;0.50;0.47;;;27.90;50.30;;;;;;6220376;23;20058;-78
2021/06/01 10:18:02;;;;;;;0.50;0.50;;;27.90;50.10;;;;;;6238688;23;20004;-81
2021/06/01 10:20:31;;;;;;;0.45;0.45;;;28.00;49.90;;;;;;6212174;23;20015;-80
2021/06/01 10:22:58;;;;;;;0.50;0.50;;;28.00;49.70;;;;;;6245307;22;20004;-81
2021/06/01 10:25:25;;;;;;;0.40;0.40;;;28.10;49.50;;;;;;6245012;22;20020;-80
2021/06/01 10:27:52;;;;;;;0.65;0.60;;;28.10;49.30;;;;;;6243594;23;20008;-80
2021/06/01 10:30:18;;;;;;;0.52;0.52;;;27.90;49.40;;;;;;6243726;23;20039;-79
2021/06/01 10:32:48;;;;;;;0.75;0.50;;;27.70;49.90;;;;;;6193371;23;20393;-80
2021/06/01 10:35:19;;;;;;;0.40;0.40;;;27.80;49.80;;;;;;6246913;23;20012;-79
2021/06/01 10:48:46;;;;;;;0.55;0.55;;;28.10;49.00;;;;;;6245093;22;20012;-80
2021/06/01 10:53:50;;;;;;;0.50;0.50;;;28.10;49.10;;;;;;6240931;23;20012;-79
2021/06/01 10:56:16;;;;;;;0.75;0.50;;;28.20;48.70;;;;;;6248545;23;20459;-81
2021/06/01 10:59:06;;;;;;;0.50;0.50;;;28.30;48.50;;;;;;6246785;23;20012;-77
2021/06/01 11:04:27;;;;;;;0.45;0.45;;;28.40;48.10;;;;;;6248864;22;20089;-84
2021/06/01 11:07:14;;;;;;;1.25;0.45;;;28.40;48.00;;;;;;6158578;23;20021;-80
2021/06/01 11:13:35;;;;;;;0.47;0.45;;;28.60;47.90;;;;;;6103136;23;20076;-79
2021/06/01 11:20:18;;;;;;;0.65;0.50;;;28.50;47.90;;;;;;6164351;23;20039;-80
2021/06/01 11:23:13;;;;;;;0.53;0.43;;;28.50;48.10;;;;;;6130200;23;20014;-83
2021/06/01 11:32:48;;;;;;;0.40;0.40;;;28.40;47.70;;;;;;6076425;23;20031;-80
2021/06/01 11:34:33;;;;;;;1.48;0.80;;;28.30;47.70;;;;;;6076928;23;20023;-78
2021/06/01 11:37:00;;;;;;;0.50;0.50;;;28.30;47.60;;;;;;6077438;23;20017;-79
2021/06/01 11:39:45;;;;;;;0.70;0.70;;;28.20;47.50;;;;;;6052075;23;20019;-77
2021/06/01 11:45:03;;;;;;;0.50;0.50;;;28.20;47.60;;;;;;6122387;23;20018;-77
2021/06/01 11:47:41;;;;;;;0.80;0.52;;;28.10;47.50;;;;;;6125077;23;20037;-78
2021/06/01 11:52:56;;;;;;;0.40;0.40;;;28.10;47.40;;;;;;6142236;23;20095;-76
2021/06/01 11:55:23;;;;;;;0.47;0.47;;;28.10;47.30;;;;;;6188630;23;20032;-76
2021/06/01 12:03:10;;;;;;;;;;;28.20;47.30;;;;;;6252468;23;20407;-80
2021/06/01 12:11:12;;;;;;;0.50;0.50;;;28.00;47.40;;;;;;6228953;23;19891;-82
2021/06/01 12:13:55;;;;;;;0.80;0.60;;;27.80;47.40;;;;;;6222738;23;20016;-79
2021/06/01 12:19:18;;;;;;;0.50;0.40;;;27.60;47.40;;;;;;6220554;23;20016;-81
2021/06/01 12:21:50;;;;;;;0.60;0.60;;;27.50;47.50;;;;;;6247840;23;20090;-77
2021/06/01 12:24:21;;;;;;;0.40;0.40;;;27.40;47.60;;;;;;6244142;22;20077;-78
2021/06/01 12:27:02;;;;;;;0.38;0.38;;;27.20;47.70;;;;;;6218474;23;20008;-78
2021/06/01 12:32:18;;;;;;;0.43;0.43;;;27.30;47.60;;;;;;6243658;22;20047;-77
2021/06/01 12:45:54;;;;;;;0.45;0.45;;;27.20;47.50;;;;;;6248081;23;19922;-76
2021/06/01 13:09:13;;;;;;;0.35;0.35;;;26.90;46.80;;;;;;6259547;22;20020;-77
2021/06/01 13:14:24;;;;;;;0.50;0.50;;;26.90;46.90;;;;;;6252334;22;20047;-75
2021/06/01 13:19:41;;;;;;;0.40;0.40;;;26.90;46.70;;;;;;6244870;22;20016;-75
2021/06/01 13:23:05;;;;;;;0.60;0.50;;;26.90;46.60;;;;;;6216876;23;20034;-76
2021/06/01 13:47:13;;;;;;;0.50;0.50;;;26.60;46.30;;;;;;6245122;22;20452;-76
2021/06/01 13:49:45;;;;;;;0.50;0.50;;;26.60;46.20;;;;;;6219149;23;20019;-76
2021/06/01 13:52:32;;;;;;;0.55;0.55;;;26.60;46.10;;;;;;6241333;23;20008;-77
2021/06/01 13:55:11;;;;;;;0.50;0.50;;;26.60;45.90;;;;;;6244738;22;20009;-78
2021/06/01 14:00:34;;;;;;;0.38;0.38;;;26.50;45.80;;;;;;6245639;22;20095;-77
2021/06/01 14:29:55;;;;;;;0.50;0.50;;;26.40;45.20;;;;;;6251000;22;20065;-76
2021/06/01 14:35:48;;;;;;;0.30;0.30;;;26.40;45.10;;;;;;6250629;22;20000;-74
2021/06/01 14:38:08;;;;;;;0.57;0.57;;;26.40;45.10;;;;;;6248646;22;20084;-76
2021/06/01 15:08:05;;;;;;;0.50;0.50;;;26.40;44.40;;;;;;6231408;23;20024;-79
2021/06/01 15:10:47;;;;;;;0.68;0.50;;;26.30;44.20;;;;;;6251337;23;20023;-76
2021/06/01 15:29:28;;;;;;;0.40;0.40;;;26.30;43.70;;;;;;6211951;23;20009;-79
2021/06/01 15:49:31;;;;;;;0.38;0.38;;;26.30;43.50;;;;;;6153688;23;20029;-84
2021/06/01 16:14:28;;;;;;;0.45;0.40;;;26.10;43.10;;;;;;5832361;24;20049;-83
2021/06/01 17:04:37;;;;;;;0.40;0.40;;;25.60;43.00;;;;;;5902566;24;20445;-85
2021/06/01 17:13:50;;;;;;;0.40;0.40;;;25.60;42.90;;;;;;5868363;24;20521;-81
2021/06/01 17:16:30;;;;;;;0.30;0.30;;;25.60;42.90;;;;;;5862855;24;20023;-83
2021/06/01 17:19:22;;;;;;;0.45;0.45;;;25.60;42.90;;;;;;5806584;24;20100;-82
2021/06/01 17:30:34;;;;;;;0.20;0.20;;;25.50;42.80;;;;;;5896698;24;20449;-81
2021/06/01 17:35:23;;;;;;;0.40;0.40;;;25.30;42.70;;;;;;5948136;24;20021;-79
2021/06/01 17:37:49;;;;;;;0.40;0.40;;;25.20;42.60;;;;;;5951320;24;20475;-80
2021/06/01 17:40:18;;;;;;;0.30;0.30;;;25.30;42.70;;;;;;5975956;24;20085;-80
2021/06/01 17:42:50;;;;;;;0.30;0.30;;;25.30;42.60;;;;;;5952370;24;20078;-79
2021/06/01 17:45:21;;;;;;;0.50;0.50;;;25.20;42.50;;;;;;6010694;23;20026;-80
2021/06/01 17:47:50;;;;;;;;;;;25.20;42.50;;;;;;6196659;23;20032;-80
2021/06/01 17:50:16;;;;;;;0.32;0.32;;;25.20;42.60;;;;;;6214652;23;19908;-80
2021/06/01 17:52:43;;;;;;;0.40;0.40;;;25.20;42.60;;;;;;6213655;23;20009;-81
2021/06/01 17:55:15;;;;;;;0.30;0.30;;;25.30;42.40;;;;;;6188612;23;20009;-80
2021/06/01 17:57:43;;;;;;;0.40;0.40;;;25.40;42.40;;;;;;6213770;23;20012;-79
2021/06/01 18:00:11;;;;;;;0.40;0.40;;;25.40;42.20;;;;;;6214595;23;20012;-79
2021/06/01 18:02:37;;;;;;;0.57;0.50;;;25.40;42.40;;;;;;6163711;23;20019;-80
2021/06/01 18:05:04;;;;;;;0.30;0.30;;;25.40;42.10;;;;;;6189026;23;20035;-79
2021/06/01 18:29:56;;;;;;;0.30;0.30;;;27.30;40.80;;;;;;6215469;23;20016;-80
2021/06/01 18:40:46;;;;;;;0.30;0.30;;;26.70;41.30;;;;;;6215379;23;20468;-76
2021/06/01 18:51:10;;;;;;;0.47;0.47;;;26.00;42.10;;;;;;6211413;23;20043;-72
2021/06/01 19:26:43;;;;;;;0.40;0.40;;;23.40;44.80;;;;;;6214126;23;20020;-73
2021/06/01 19:29:07;;;;;;;0.40;0.40;;;23.20;44.90;;;;;;6213778;23;20031;-73
2021/06/01 19:49:55;;;;;;;0.80;0.38;;;22.60;45.50;;;;;;6213876;23;20027;-73